createdAt,value
2017-04-01T00:00:17.971Z,1006.74
2017-04-01T00:01:30.492Z,1006.75
2017-04-01T00:02:43.336Z,1006.74
2017-04-01T00:03:55.571Z,1006.71
2017-04-01T00:05:08.128Z,1006.72
2017-04-01T00:06:20.649Z,1006.67
2017-04-01T00:07:32.821Z,1006.65
2017-04-01T00:08:45.340Z,1006.65
2017-04-01T00:09:57.562Z,1006.68
2017-04-01T00:11:09.484Z,1006.65
2017-04-01T00:12:22.028Z,1006.65
2017-04-01T00:13:34.291Z,1006.67
2017-04-01T00:14:46.843Z,1006.63
2017-04-01T00:15:59.357Z,1006.63
2017-04-01T00:17:11.889Z,1006.6
2017-04-01T00:18:24.116Z,1006.63
2017-04-01T00:19:36.343Z,1006.64
2017-04-01T00:20:48.867Z,1006.67
2017-04-01T00:22:01.419Z,1006.66
2017-04-01T00:23:13.658Z,1006.68
2017-04-01T00:24:25.913Z,1006.67
2017-04-01T00:25:38.449Z,1006.66
2017-04-01T00:26:50.650Z,1006.68
2017-04-01T00:28:02.846Z,1006.63
2017-04-01T00:29:15.368Z,1006.64
2017-04-01T00:30:27.291Z,1006.58
2017-04-01T00:31:39.838Z,1006.62
2017-04-01T00:32:52.358Z,1006.56
2017-04-01T00:34:04.876Z,1006.58
2017-04-01T00:35:17.099Z,1006.55
2017-04-01T00:36:29.618Z,1006.56
2017-04-01T00:37:42.117Z,1006.53
2017-04-01T00:38:54.638Z,1006.55
2017-04-01T00:40:07.156Z,1006.57
2017-04-01T00:41:19.677Z,1006.53
2017-04-01T00:42:31.302Z,1006.51
2017-04-01T00:43:43.844Z,1006.54
2017-04-01T00:44:56.369Z,1006.47
2017-04-01T00:46:08.913Z,1006.51
2017-04-01T00:47:21.474Z,1006.51
2017-04-01T00:48:33.679Z,1006.51
2017-04-01T00:49:45.620Z,1006.48
2017-04-01T00:50:58.440Z,1006.5
2017-04-01T00:52:10.643Z,1006.48
2017-04-01T00:53:23.190Z,1006.44
2017-04-01T00:54:35.111Z,1006.47
2017-04-01T00:55:47.628Z,1006.46
2017-04-01T00:57:00.144Z,1006.47
2017-04-01T00:58:12.390Z,1006.42
2017-04-01T00:59:24.940Z,1006.41
2017-04-01T01:00:37.178Z,1006.39
2017-04-01T01:01:49.406Z,1006.39
2017-04-01T01:03:01.032Z,1006.36
2017-04-01T01:04:13.576Z,1006.35
2017-04-01T01:05:26.091Z,1006.36
2017-04-01T01:06:38.319Z,1006.36
2017-04-01T01:07:50.866Z,1006.37
2017-04-01T01:09:03.108Z,1006.41
2017-04-01T01:10:15.631Z,1006.37
2017-04-01T01:11:27.882Z,1006.42
2017-04-01T01:12:40.104Z,1006.4
2017-04-01T01:13:52.666Z,1006.41
2017-04-01T01:15:05.209Z,1006.38
2017-04-01T01:16:17.117Z,1006.36
2017-04-01T01:17:29.679Z,1006.37
2017-04-01T01:18:42.196Z,1006.35
2017-04-01T01:19:54.421Z,1006.37
2017-04-01T01:21:06.617Z,1006.39
2017-04-01T01:22:19.162Z,1006.35
2017-04-01T01:23:31.340Z,1006.37
2017-04-01T01:24:43.548Z,1006.37
2017-04-01T01:25:56.075Z,1006.34
2017-04-01T01:27:08.626Z,1006.36
2017-04-01T01:28:21.160Z,1006.4
2017-04-01T01:29:33.688Z,1006.39
2017-04-01T01:30:45.918Z,1006.39
2017-04-01T01:31:58.130Z,1006.4
2017-04-01T01:33:09.776Z,1006.41
2017-04-01T01:34:22.006Z,1006.36
2017-04-01T01:35:34.247Z,1006.35
2017-04-01T01:36:46.481Z,1006.34
2017-04-01T01:37:59.030Z,1006.34
2017-04-01T01:39:11.555Z,1006.33
2017-04-01T01:40:24.336Z,1006.3
2017-04-01T01:41:36.577Z,1006.29
2017-04-01T01:42:49.094Z,1006.29
2017-04-01T01:44:01.609Z,1006.31
2017-04-01T01:45:14.139Z,1006.27
2017-04-01T01:46:26.660Z,1006.31
2017-04-01T01:47:38.905Z,1006.27
2017-04-01T01:48:51.444Z,1006.26
2017-04-01T01:50:03.948Z,1006.25
2017-04-01T01:51:15.890Z,1006.25
2017-04-01T01:52:28.494Z,1006.24
2017-04-01T01:53:40.724Z,1006.22
2017-04-01T01:54:52.932Z,1006.23
2017-04-01T01:56:05.451Z,1006.19
2017-04-01T01:57:17.724Z,1006.13
2017-04-01T01:58:30.257Z,1006.13
2017-04-01T01:59:42.186Z,1006.17
2017-04-01T02:00:54.704Z,1006.13
2017-04-01T02:02:07.228Z,1006.06
2017-04-01T02:03:19.428Z,1006.07
2017-04-01T02:04:31.645Z,1006.06
2017-04-01T02:05:44.186Z,1006.09
2017-04-01T02:06:57.037Z,1006.1
2017-04-01T02:08:09.608Z,1006.14
2017-04-01T02:09:22.130Z,1006.13
2017-04-01T02:10:34.652Z,1006.15
2017-04-01T02:11:46.579Z,1006.18
2017-04-01T02:12:59.121Z,1006.19
2017-04-01T02:14:11.662Z,1006.15
2017-04-01T02:15:24.203Z,1006.18
2017-04-01T02:16:36.425Z,1006.17
2017-04-01T02:17:49.192Z,1006.17
2017-04-01T02:19:01.723Z,1006.16
2017-04-01T02:20:14.241Z,1006.13
2017-04-01T02:21:26.810Z,1006.14
2017-04-01T02:22:39.328Z,1006.18
2017-04-01T02:23:51.555Z,1006.16
2017-04-01T02:25:04.076Z,1006.13
2017-04-01T02:26:16.600Z,1006.2
2017-04-01T02:27:29.117Z,1006.14
2017-04-01T02:28:41.938Z,1006.17
2017-04-01T02:29:54.139Z,1006.14
2017-04-01T02:31:06.656Z,1006.19
2017-04-01T02:32:18.881Z,1006.2
2017-04-01T02:33:31.425Z,1006.23
2017-04-01T02:34:43.668Z,1006.23
2017-04-01T02:35:56.220Z,1006.23
2017-04-01T02:37:08.759Z,1006.28
2017-04-01T02:38:21.301Z,1006.28
2017-04-01T02:39:33.576Z,1006.27
2017-04-01T02:40:46.122Z,1006.28
2017-04-01T02:41:58.360Z,1006.24
2017-04-01T02:43:10.565Z,1006.26
2017-04-01T02:44:23.109Z,1006.23
2017-04-01T02:45:35.022Z,1006.23
2017-04-01T02:46:47.252Z,1006.27
2017-04-01T02:47:59.798Z,1006.22
2017-04-01T02:49:12.348Z,1006.25
2017-04-01T02:50:24.540Z,1006.22
2017-04-01T02:51:37.069Z,1006.21
2017-04-01T02:52:49.287Z,1006.18
2017-04-01T02:54:01.844Z,1006.16
2017-04-01T02:55:14.374Z,1006.23
2017-04-01T02:56:26.623Z,1006.19
2017-04-01T02:57:38.544Z,1006.18
2017-04-01T02:58:50.761Z,1006.16
2017-04-01T03:00:03.322Z,1006.16
2017-04-01T03:01:15.548Z,1006.18
2017-04-01T03:02:27.776Z,1006.16
2017-04-01T03:03:40.298Z,1006.12
2017-04-01T03:04:52.840Z,1006.15
2017-04-01T03:06:05.366Z,1006.15
2017-04-01T03:07:17.900Z,1006.19
2017-04-01T03:08:30.131Z,1006.2
2017-04-01T03:09:42.649Z,1006.22
2017-04-01T03:10:55.170Z,1006.22
2017-04-01T03:12:07.694Z,1006.18
2017-04-01T03:13:20.232Z,1006.2
2017-04-01T03:14:32.161Z,1006.16
2017-04-01T03:15:44.678Z,1006.17
2017-04-01T03:16:57.216Z,1006.2
2017-04-01T03:18:09.748Z,1006.17
2017-04-01T03:19:21.366Z,1006.19
2017-04-01T03:20:33.587Z,1006.23
2017-04-01T03:21:45.538Z,1006.23
2017-04-01T03:22:58.379Z,1006.19
2017-04-01T03:24:10.904Z,1006.19
2017-04-01T03:25:23.450Z,1006.17
2017-04-01T03:26:35.694Z,1006.22
2017-04-01T03:27:47.919Z,1006.21
2017-04-01T03:29:00.138Z,1006.23
2017-04-01T03:30:12.354Z,1006.2
2017-04-01T03:31:24.875Z,1006.19
2017-04-01T03:32:37.392Z,1006.2
2017-04-01T03:33:49.592Z,1006.23
2017-04-01T03:35:02.138Z,1006.22
2017-04-01T03:36:14.684Z,1006.19
2017-04-01T03:37:26.930Z,1006.22
2017-04-01T03:38:39.454Z,1006.25
2017-04-01T03:39:51.989Z,1006.25
2017-04-01T03:41:04.521Z,1006.2
2017-04-01T03:42:17.067Z,1006.19
2017-04-01T03:43:29.606Z,1006.13
2017-04-01T03:44:42.134Z,1006.13
2017-04-01T03:45:54.668Z,1006.15
2017-04-01T03:47:06.893Z,1006.16
2017-04-01T03:48:19.118Z,1006.18
2017-04-01T03:49:31.642Z,1006.15
2017-04-01T03:50:43.264Z,1006.21
2017-04-01T03:51:55.810Z,1006.17
2017-04-01T03:53:08.344Z,1006.17
2017-04-01T03:54:20.848Z,1006.17
2017-04-01T03:55:33.098Z,1006.19
2017-04-01T03:56:45.639Z,1006.18
2017-04-01T03:57:58.160Z,1006.22
2017-04-01T03:59:10.677Z,1006.22
2017-04-01T04:00:22.924Z,1006.22
2017-04-01T04:01:35.201Z,1006.24
2017-04-01T04:02:47.762Z,1006.23
2017-04-01T04:04:00.291Z,1006.24
2017-04-01T04:05:12.519Z,1006.25
2017-04-01T04:06:25.040Z,1006.23
2017-04-01T04:07:37.560Z,1006.23
2017-04-01T04:08:50.078Z,1006.23
2017-04-01T04:10:02.639Z,1006.17
2017-04-01T04:11:14.869Z,1006.22
2017-04-01T04:12:27.409Z,1006.26
2017-04-01T04:13:39.960Z,1006.28
2017-04-01T04:14:51.303Z,1006.28
2017-04-01T04:16:03.802Z,1006.25
2017-04-01T04:17:15.744Z,1006.26
2017-04-01T04:18:27.669Z,1006.27
2017-04-01T04:19:40.209Z,1006.29
2017-04-01T04:20:52.725Z,1006.3
2017-04-01T04:22:05.229Z,1006.31
2017-04-01T04:23:17.777Z,1006.32
2017-04-01T04:24:30.000Z,1006.32
2017-04-01T04:25:42.262Z,1006.36
2017-04-01T04:26:54.517Z,1006.38
2017-04-01T04:28:07.336Z,1006.37
2017-04-01T04:29:19.554Z,1006.34
2017-04-01T04:30:32.054Z,1006.33
2017-04-01T04:31:44.593Z,1006.33
2017-04-01T04:32:57.121Z,1006.33
2017-04-01T04:34:09.341Z,1006.34
2017-04-01T04:35:21.880Z,1006.39
2017-04-01T04:36:34.110Z,1006.36
2017-04-01T04:37:46.329Z,1006.39
2017-04-01T04:38:58.792Z,1006.4
2017-04-01T04:40:11.317Z,1006.38
2017-04-01T04:41:23.542Z,1006.39
2017-04-01T04:42:35.459Z,1006.39
2017-04-01T04:43:48.001Z,1006.38
2017-04-01T04:45:00.551Z,1006.38
2017-04-01T04:46:12.771Z,1006.37
2017-04-01T04:47:25.014Z,1006.42
2017-04-01T04:48:37.538Z,1006.42
2017-04-01T04:49:49.760Z,1006.36
2017-04-01T04:51:02.255Z,1006.4
2017-04-01T04:52:14.477Z,1006.39
2017-04-01T04:53:27.025Z,1006.41
2017-04-01T04:54:39.247Z,1006.4
2017-04-01T04:55:51.192Z,1006.37
2017-04-01T04:57:03.738Z,1006.39
2017-04-01T04:58:15.965Z,1006.41
2017-04-01T04:59:28.494Z,1006.43
2017-04-01T05:00:40.727Z,1006.44
2017-04-01T05:01:53.248Z,1006.5
2017-04-01T05:03:05.793Z,1006.47
2017-04-01T05:04:18.039Z,1006.48
2017-04-01T05:05:30.260Z,1006.47
2017-04-01T05:06:42.782Z,1006.48
2017-04-01T05:07:55.307Z,1006.5
2017-04-01T05:09:07.814Z,1006.52
2017-04-01T05:10:20.340Z,1006.52
2017-04-01T05:11:32.808Z,1006.53
2017-04-01T05:12:45.336Z,1006.55
2017-04-01T05:13:57.883Z,1006.55
2017-04-01T05:15:10.399Z,1006.58
2017-04-01T05:16:22.920Z,1006.64
2017-04-01T05:17:35.469Z,1006.62
2017-04-01T05:18:47.990Z,1006.6
2017-04-01T05:20:00.233Z,1006.64
2017-04-01T05:21:12.758Z,1006.66
2017-04-01T05:22:25.295Z,1006.66
2017-04-01T05:23:37.525Z,1006.69
2017-04-01T05:24:49.721Z,1006.68
2017-04-01T05:26:02.241Z,1006.68
2017-04-01T05:27:14.464Z,1006.64
2017-04-01T05:28:27.008Z,1006.67
2017-04-01T05:29:39.253Z,1006.68
2017-04-01T05:30:51.793Z,1006.65
2017-04-01T05:32:04.024Z,1006.66
2017-04-01T05:33:16.568Z,1006.65
2017-04-01T05:34:28.809Z,1006.65
2017-04-01T05:35:41.331Z,1006.61
2017-04-01T05:36:53.844Z,1006.64
2017-04-01T05:38:06.351Z,1006.63
2017-04-01T05:39:18.570Z,1006.6
2017-04-01T05:40:30.164Z,1006.6
2017-04-01T05:41:42.685Z,1006.6
2017-04-01T05:42:55.234Z,1006.59
2017-04-01T05:44:08.055Z,1006.64
2017-04-01T05:45:20.548Z,1006.6
2017-04-01T05:46:33.087Z,1006.59
2017-04-01T05:47:45.619Z,1006.65
2017-04-01T05:48:58.152Z,1006.67
2017-04-01T05:50:10.360Z,1006.69
2017-04-01T05:51:22.578Z,1006.74
2017-04-01T05:52:35.092Z,1006.71
2017-04-01T05:53:47.622Z,1006.67
2017-04-01T05:55:00.165Z,1006.74
2017-04-01T05:56:12.704Z,1006.75
2017-04-01T05:57:24.907Z,1006.74
2017-04-01T05:58:37.153Z,1006.75
2017-04-01T05:59:49.678Z,1006.74
2017-04-01T06:01:02.216Z,1006.73
2017-04-01T06:02:14.758Z,1006.76
2017-04-01T06:03:26.686Z,1006.73
2017-04-01T06:04:39.203Z,1006.74
2017-04-01T06:05:52.033Z,1006.72
2017-04-01T06:07:04.552Z,1006.73
2017-04-01T06:08:17.099Z,1006.69
2017-04-01T06:09:29.641Z,1006.71
2017-04-01T06:10:42.187Z,1006.69
2017-04-01T06:11:54.128Z,1006.68
2017-04-01T06:13:06.671Z,1006.69
2017-04-01T06:14:19.199Z,1006.69
2017-04-01T06:15:31.742Z,1006.73
2017-04-01T06:16:44.267Z,1006.76
2017-04-01T06:17:56.490Z,1006.73
2017-04-01T06:19:09.016Z,1006.75
2017-04-01T06:20:21.599Z,1006.73
2017-04-01T06:21:33.553Z,1006.77
2017-04-01T06:22:46.088Z,1006.76
2017-04-01T06:23:58.595Z,1006.7
2017-04-01T06:25:10.840Z,1006.75
2017-04-01T06:26:23.087Z,1006.69
2017-04-01T06:27:35.623Z,1006.71
2017-04-01T06:28:47.852Z,1006.69
2017-04-01T06:30:00.402Z,1006.68
2017-04-01T06:31:12.945Z,1006.71
2017-04-01T06:32:25.190Z,1006.72
2017-04-01T06:33:37.738Z,1006.72
2017-04-01T06:34:49.972Z,1006.73
2017-04-01T06:36:02.176Z,1006.78
2017-04-01T06:37:14.400Z,1006.74
2017-04-01T06:38:26.622Z,1006.79
2017-04-01T06:39:39.142Z,1006.75
2017-04-01T06:40:50.761Z,1006.82
2017-04-01T06:42:03.301Z,1006.81
2017-04-01T06:43:15.579Z,1006.82
2017-04-01T06:44:27.523Z,1006.81
2017-04-01T06:45:39.737Z,1006.82
2017-04-01T06:46:52.260Z,1006.78
2017-04-01T06:48:04.811Z,1006.77
2017-04-01T06:49:17.352Z,1006.82
2017-04-01T06:50:29.902Z,1006.83
2017-04-01T06:51:42.130Z,1006.85
2017-04-01T06:52:54.671Z,1006.86
2017-04-01T06:54:06.911Z,1006.83
2017-04-01T06:55:19.454Z,1006.88
2017-04-01T06:56:31.631Z,1006.9
2017-04-01T06:57:44.220Z,1006.87
2017-04-01T06:58:56.405Z,1006.88
2017-04-01T07:00:08.945Z,1006.9
2017-04-01T07:01:21.210Z,1006.86
2017-04-01T07:02:33.429Z,1006.89
2017-04-01T07:03:45.975Z,1006.9
2017-04-01T07:04:58.481Z,1006.94
2017-04-01T07:06:10.450Z,1006.91
2017-04-01T07:07:22.095Z,1006.9
2017-04-01T07:08:34.645Z,1006.9
2017-04-01T07:09:46.895Z,1006.89
2017-04-01T07:10:59.413Z,1006.93
2017-04-01T07:12:11.660Z,1006.92
2017-04-01T07:13:23.900Z,1006.92
2017-04-01T07:14:36.445Z,1006.92
2017-04-01T07:15:48.969Z,1006.93
2017-04-01T07:17:01.512Z,1006.88
2017-04-01T07:18:14.036Z,1006.89
2017-04-01T07:19:26.279Z,1006.9
2017-04-01T07:20:38.826Z,1006.94
2017-04-01T07:21:51.392Z,1006.88
2017-04-01T07:23:03.946Z,1006.89
2017-04-01T07:24:16.216Z,1006.91
2017-04-01T07:25:28.451Z,1006.93
2017-04-01T07:26:40.682Z,1006.96
2017-04-01T07:27:53.243Z,1006.97
2017-04-01T07:29:05.446Z,1006.98
2017-04-01T07:30:17.644Z,1006.93
2017-04-01T07:31:30.147Z,1006.93
2017-04-01T07:32:42.727Z,1006.9
2017-04-01T07:33:55.250Z,1006.92
2017-04-01T07:35:07.451Z,1006.9
2017-04-01T07:36:19.700Z,1006.92
2017-04-01T07:37:32.247Z,1006.97
2017-04-01T07:38:44.482Z,1006.92
2017-04-01T07:39:56.688Z,1006.96
2017-04-01T07:41:08.651Z,1006.92
2017-04-01T07:42:21.206Z,1006.95
2017-04-01T07:43:33.475Z,1006.96
2017-04-01T07:44:45.401Z,1006.96
2017-04-01T07:45:57.642Z,1006.95
2017-04-01T07:47:10.163Z,1006.89
2017-04-01T07:48:22.427Z,1006.89
2017-04-01T07:49:34.980Z,1006.89
2017-04-01T07:50:47.499Z,1006.9
2017-04-01T07:52:00.020Z,1006.88
2017-04-01T07:53:12.544Z,1006.87
2017-04-01T07:54:25.089Z,1006.84
2017-04-01T07:55:37.660Z,1006.85
2017-04-01T07:56:49.884Z,1006.83
2017-04-01T07:58:02.430Z,1006.9
2017-04-01T07:59:14.664Z,1006.88
2017-04-01T08:00:26.607Z,1006.85
2017-04-01T08:01:38.815Z,1006.88
2017-04-01T08:02:51.352Z,1006.88
2017-04-01T08:04:03.879Z,1006.91
2017-04-01T08:05:16.666Z,1006.91
2017-04-01T08:06:28.894Z,1006.89
2017-04-01T08:07:40.832Z,1006.91
2017-04-01T08:08:52.739Z,1006.92
2017-04-01T08:10:05.285Z,1006.93
2017-04-01T08:11:17.531Z,1006.92
2017-04-01T08:12:29.468Z,1006.93
2017-04-01T08:13:41.995Z,1006.94
2017-04-01T08:14:54.537Z,1006.94
2017-04-01T08:16:07.037Z,1006.96
2017-04-01T08:17:19.583Z,1006.95
2017-04-01T08:18:31.832Z,1006.94
2017-04-01T08:19:44.355Z,1006.94
2017-04-01T08:20:56.599Z,1006.95
2017-04-01T08:22:09.158Z,1006.96
2017-04-01T08:23:21.662Z,1006.91
2017-04-01T08:24:33.613Z,1006.94
2017-04-01T08:25:46.171Z,1006.93
2017-04-01T08:26:58.402Z,1006.93
2017-04-01T08:28:10.669Z,1006.93
2017-04-01T08:29:22.893Z,1006.93
2017-04-01T08:30:35.417Z,1006.98
2017-04-01T08:31:47.959Z,1006.96
2017-04-01T08:33:00.497Z,1006.94
2017-04-01T08:34:13.026Z,1006.97
2017-04-01T08:35:25.526Z,1006.92
2017-04-01T08:36:38.067Z,1006.9
2017-04-01T08:37:49.991Z,1006.88
2017-04-01T08:39:02.512Z,1006.88
2017-04-01T08:40:14.739Z,1006.88
2017-04-01T08:41:27.297Z,1006.86
2017-04-01T08:42:39.863Z,1006.83
2017-04-01T08:43:52.439Z,1006.78
2017-04-01T08:45:04.363Z,1006.85
2017-04-01T08:46:16.909Z,1006.79
2017-04-01T08:47:29.452Z,1006.8
2017-04-01T08:48:41.680Z,1006.78
2017-04-01T08:49:53.916Z,1006.75
2017-04-01T08:51:06.443Z,1006.8
2017-04-01T08:52:18.993Z,1006.73
2017-04-01T08:53:31.528Z,1006.78
2017-04-01T08:54:44.061Z,1006.76
2017-04-01T08:55:56.606Z,1006.74
2017-04-01T08:57:08.851Z,1006.72
2017-04-01T08:58:21.111Z,1006.78
2017-04-01T08:59:33.632Z,1006.76
2017-04-01T09:00:46.156Z,1006.73
2017-04-01T09:01:58.707Z,1006.76
2017-04-01T09:03:10.948Z,1006.76
2017-04-01T09:04:22.906Z,1006.81
2017-04-01T09:05:35.147Z,1006.73
2017-04-01T09:06:47.686Z,1006.76
2017-04-01T09:07:59.614Z,1006.76
2017-04-01T09:09:12.153Z,1006.8
2017-04-01T09:10:24.358Z,1006.77
2017-04-01T09:11:36.626Z,1006.73
2017-04-01T09:12:48.870Z,1006.71
2017-04-01T09:14:01.394Z,1006.7
2017-04-01T09:15:13.940Z,1006.65
2017-04-01T09:16:26.486Z,1006.6
2017-04-01T09:17:38.733Z,1006.64
2017-04-01T09:18:50.981Z,1006.67
2017-04-01T09:20:03.540Z,1006.67
2017-04-01T09:21:15.396Z,1006.66
2017-04-01T09:22:27.317Z,1006.67
2017-04-01T09:23:39.537Z,1006.66
2017-04-01T09:24:52.104Z,1006.62
2017-04-01T09:26:04.367Z,1006.62
2017-04-01T09:27:16.575Z,1006.62
2017-04-01T09:28:28.798Z,1006.63
2017-04-01T09:29:41.022Z,1006.66
2017-04-01T09:30:53.556Z,1006.67
2017-04-01T09:32:05.497Z,1006.67
2017-04-01T09:33:18.021Z,1006.65
2017-04-01T09:34:30.592Z,1006.64
2017-04-01T09:35:42.838Z,1006.66
2017-04-01T09:36:55.367Z,1006.67
2017-04-01T09:38:07.626Z,1006.65
2017-04-01T09:39:20.161Z,1006.66
2017-04-01T09:40:32.730Z,1006.58
2017-04-01T09:41:45.272Z,1006.6
2017-04-01T09:42:57.871Z,1006.61
2017-04-01T09:44:10.409Z,1006.56
2017-04-01T09:45:22.640Z,1006.61
2017-04-01T09:46:34.881Z,1006.6
2017-04-01T09:47:46.822Z,1006.59
2017-04-01T09:48:59.040Z,1006.59
2017-04-01T09:50:11.568Z,1006.58
2017-04-01T09:51:24.100Z,1006.6
2017-04-01T09:52:36.360Z,1006.6
2017-04-01T09:53:48.884Z,1006.59
2017-04-01T09:55:01.428Z,1006.59
2017-04-01T09:56:13.677Z,1006.56
2017-04-01T09:57:26.211Z,1006.63
2017-04-01T09:58:38.774Z,1006.52
2017-04-01T09:59:51.542Z,1006.6
2017-04-01T10:01:03.785Z,1006.57
2017-04-01T10:02:16.027Z,1006.56
2017-04-01T10:03:28.581Z,1006.59
2017-04-01T10:04:40.817Z,1006.58
2017-04-01T10:05:53.040Z,1006.52
2017-04-01T10:07:05.268Z,1006.58
2017-04-01T10:08:17.839Z,1006.56
2017-04-01T10:09:30.380Z,1006.55
2017-04-01T10:10:42.927Z,1006.55
2017-04-01T10:11:55.444Z,1006.58
2017-04-01T10:13:07.983Z,1006.57
2017-04-01T10:14:20.512Z,1006.61
2017-04-01T10:15:33.082Z,1006.54
2017-04-01T10:16:45.637Z,1006.57
2017-04-01T10:17:58.199Z,1006.53
2017-04-01T10:19:10.411Z,1006.5
2017-04-01T10:20:22.666Z,1006.49
2017-04-01T10:21:35.205Z,1006.52
2017-04-01T10:22:47.734Z,1006.49
2017-04-01T10:23:59.675Z,1006.52
2017-04-01T10:25:12.249Z,1006.5
2017-04-01T10:26:24.774Z,1006.48
2017-04-01T10:27:37.334Z,1006.45
2017-04-01T10:28:49.891Z,1006.44
2017-04-01T10:30:02.451Z,1006.41
2017-04-01T10:31:14.382Z,1006.42
2017-04-01T10:32:26.950Z,1006.41
2017-04-01T10:33:39.471Z,1006.42
2017-04-01T10:34:52.017Z,1006.43
2017-04-01T10:36:04.541Z,1006.41
2017-04-01T10:37:17.087Z,1006.43
2017-04-01T10:38:29.333Z,1006.42
2017-04-01T10:39:41.879Z,1006.38
2017-04-01T10:40:54.143Z,1006.38
2017-04-01T10:42:06.688Z,1006.37
2017-04-01T10:43:18.616Z,1006.36
2017-04-01T10:44:30.881Z,1006.35
2017-04-01T10:45:43.450Z,1006.35
2017-04-01T10:46:55.693Z,1006.33
2017-04-01T10:48:08.529Z,1006.32
2017-04-01T10:49:20.785Z,1006.35
2017-04-01T10:50:33.007Z,1006.35
2017-04-01T10:51:45.511Z,1006.33
2017-04-01T10:52:57.763Z,1006.3
2017-04-01T10:54:10.323Z,1006.27
2017-04-01T10:55:22.282Z,1006.28
2017-04-01T10:56:34.798Z,1006.3
2017-04-01T10:57:47.347Z,1006.27
2017-04-01T10:58:59.902Z,1006.28
2017-04-01T11:00:12.433Z,1006.29
2017-04-01T11:01:24.977Z,1006.25
2017-04-01T11:02:37.524Z,1006.26
2017-04-01T11:03:50.071Z,1006.25
2017-04-01T11:05:02.615Z,1006.25
2017-04-01T11:06:15.142Z,1006.23
2017-04-01T11:07:27.113Z,1006.2
2017-04-01T11:08:39.686Z,1006.21
2017-04-01T11:09:52.251Z,1006.22
2017-04-01T11:11:04.519Z,1006.18
2017-04-01T11:12:17.058Z,1006.19
2017-04-01T11:13:29.308Z,1006.17
2017-04-01T11:14:41.864Z,1006.17
2017-04-01T11:15:54.123Z,1006.2
2017-04-01T11:17:06.381Z,1006.19
2017-04-01T11:18:18.674Z,1006.2
2017-04-01T11:19:31.223Z,1006.18
2017-04-01T11:20:44.065Z,1006.21
2017-04-01T11:21:56.329Z,1006.17
2017-04-01T11:23:08.879Z,1006.1
2017-04-01T11:24:21.127Z,1006.09
2017-04-01T11:25:33.090Z,1006.11
2017-04-01T11:26:45.638Z,1006.12
2017-04-01T11:27:58.187Z,1006.12
2017-04-01T11:29:10.733Z,1006.08
2017-04-01T11:30:23.255Z,1006.08
2017-04-01T11:31:35.817Z,1006.07
2017-04-01T11:32:48.348Z,1006.02
2017-04-01T11:34:00.588Z,1006.01
2017-04-01T11:35:12.866Z,1006.04
2017-04-01T11:36:25.104Z,1006.03
2017-04-01T11:37:37.633Z,1006.04
2017-04-01T11:38:50.196Z,1006.03
2017-04-01T11:40:02.742Z,1006
2017-04-01T11:41:14.671Z,1006.01
2017-04-01T11:42:26.916Z,1006.04
2017-04-01T11:43:39.182Z,1006.03
2017-04-01T11:44:51.096Z,1006.05
2017-04-01T11:46:03.022Z,1005.99
2017-04-01T11:47:15.279Z,1006.01
2017-04-01T11:48:27.520Z,1005.97
2017-04-01T11:49:40.085Z,1005.96
2017-04-01T11:50:52.340Z,1005.9
2017-04-01T11:52:04.609Z,1005.96
2017-04-01T11:53:16.547Z,1005.92
2017-04-01T11:54:29.097Z,1005.93
2017-04-01T11:55:41.613Z,1005.89
2017-04-01T11:56:54.182Z,1005.9
2017-04-01T11:58:06.688Z,1005.87
2017-04-01T11:59:18.948Z,1005.85
2017-04-01T12:00:31.202Z,1005.84
2017-04-01T12:01:43.755Z,1005.8
2017-04-01T12:02:56.271Z,1005.81
2017-04-01T12:04:08.817Z,1005.85
2017-04-01T12:05:21.378Z,1005.83
2017-04-01T12:06:33.914Z,1005.79
2017-04-01T12:07:46.468Z,1005.8
2017-04-01T12:08:59.019Z,1005.85
2017-04-01T12:10:11.260Z,1005.79
2017-04-01T12:11:23.219Z,1005.81
2017-04-01T12:12:35.781Z,1005.87
2017-04-01T12:13:48.334Z,1005.87
2017-04-01T12:15:00.876Z,1005.81
2017-04-01T12:16:13.078Z,1005.83
2017-04-01T12:17:25.640Z,1005.81
2017-04-01T12:18:38.215Z,1005.79
2017-04-01T12:19:50.770Z,1005.82
2017-04-01T12:21:03.307Z,1005.79
2017-04-01T12:22:15.553Z,1005.83
2017-04-01T12:23:27.781Z,1005.75
2017-04-01T12:24:40.022Z,1005.81
2017-04-01T12:25:52.193Z,1005.77
2017-04-01T12:27:04.716Z,1005.79
2017-04-01T12:28:17.275Z,1005.78
2017-04-01T12:29:29.525Z,1005.71
2017-04-01T12:30:41.779Z,1005.72
2017-04-01T12:31:54.323Z,1005.72
2017-04-01T12:33:06.575Z,1005.73
2017-04-01T12:34:18.788Z,1005.73
2017-04-01T12:35:31.337Z,1005.72
2017-04-01T12:36:43.862Z,1005.72
2017-04-01T12:37:56.107Z,1005.72
2017-04-01T12:39:08.671Z,1005.67
2017-04-01T12:40:20.909Z,1005.67
2017-04-01T12:41:33.118Z,1005.71
2017-04-01T12:42:45.661Z,1005.7
2017-04-01T12:43:57.926Z,1005.66
2017-04-01T12:45:10.453Z,1005.67
2017-04-01T12:46:22.981Z,1005.68
2017-04-01T12:47:35.235Z,1005.69
2017-04-01T12:48:47.460Z,1005.65
2017-04-01T12:49:59.709Z,1005.65
2017-04-01T12:51:12.254Z,1005.65
2017-04-01T12:52:24.478Z,1005.67
2017-04-01T12:53:37.029Z,1005.67
2017-04-01T12:54:49.571Z,1005.6
2017-04-01T12:56:02.116Z,1005.58
2017-04-01T12:57:14.362Z,1005.54
2017-04-01T12:58:26.927Z,1005.59
2017-04-01T12:59:39.157Z,1005.54
2017-04-01T13:00:51.418Z,1005.56
2017-04-01T13:02:03.976Z,1005.49
2017-04-01T13:03:16.215Z,1005.53
2017-04-01T13:04:28.138Z,1005.52
2017-04-01T13:05:40.678Z,1005.53
2017-04-01T13:06:53.219Z,1005.53
2017-04-01T13:08:05.743Z,1005.56
2017-04-01T13:09:17.677Z,1005.54
2017-04-01T13:10:30.208Z,1005.45
2017-04-01T13:11:42.765Z,1005.47
2017-04-01T13:12:54.727Z,1005.41
2017-04-01T13:14:07.281Z,1005.47
2017-04-01T13:15:19.552Z,1005.47
2017-04-01T13:16:31.822Z,1005.46
2017-04-01T13:17:44.368Z,1005.47
2017-04-01T13:18:56.312Z,1005.43
2017-04-01T13:20:08.857Z,1005.43
2017-04-01T13:21:21.078Z,1005.38
2017-04-01T13:22:33.332Z,1005.41
2017-04-01T13:23:45.546Z,1005.42
2017-04-01T13:24:57.784Z,1005.39
2017-04-01T13:26:10.368Z,1005.35
2017-04-01T13:27:22.600Z,1005.38
2017-04-01T13:28:34.828Z,1005.34
2017-04-01T13:29:47.369Z,1005.33
2017-04-01T13:30:59.341Z,1005.29
2017-04-01T13:32:11.852Z,1005.29
2017-04-01T13:33:23.808Z,1005.3
2017-04-01T13:34:36.350Z,1005.28
2017-04-01T13:35:48.859Z,1005.3
2017-04-01T13:37:01.404Z,1005.27
2017-04-01T13:38:13.648Z,1005.24
2017-04-01T13:39:26.168Z,1005.22
2017-04-01T13:40:38.712Z,1005.19
2017-04-01T13:41:51.289Z,1005.2
2017-04-01T13:43:03.832Z,1005.21
2017-04-01T13:44:15.766Z,1005.17
2017-04-01T13:45:27.992Z,1005.18
2017-04-01T13:46:40.562Z,1005.12
2017-04-01T13:47:52.796Z,1005.17
2017-04-01T13:49:05.351Z,1005.1
2017-04-01T13:50:17.607Z,1005.09
2017-04-01T13:51:29.875Z,1005.09
2017-04-01T13:52:42.426Z,1005.08
2017-04-01T13:53:54.986Z,1005.08
2017-04-01T13:55:07.194Z,1005.06
2017-04-01T13:56:18.830Z,1005.07
2017-04-01T13:57:31.375Z,1005.07
2017-04-01T13:58:43.318Z,1005.03
2017-04-01T13:59:55.847Z,1005.03
2017-04-01T14:01:08.070Z,1005.04
2017-04-01T14:02:20.634Z,1005
2017-04-01T14:03:33.161Z,1005.02
2017-04-01T14:04:45.708Z,1004.98
2017-04-01T14:05:57.944Z,1004.96
2017-04-01T14:07:10.205Z,1004.9
2017-04-01T14:08:22.447Z,1004.92
2017-04-01T14:09:34.685Z,1004.92
2017-04-01T14:10:47.231Z,1004.92
2017-04-01T14:11:59.456Z,1004.9
2017-04-01T14:13:11.981Z,1004.91
2017-04-01T14:14:24.552Z,1004.89
2017-04-01T14:15:36.851Z,1004.85
2017-04-01T14:16:49.458Z,1004.84
2017-04-01T14:18:01.666Z,1004.86
2017-04-01T14:19:13.906Z,1004.84
2017-04-01T14:20:25.853Z,1004.79
2017-04-01T14:21:38.402Z,1004.76
2017-04-01T14:22:50.337Z,1004.75
2017-04-01T14:24:02.895Z,1004.76
2017-04-01T14:25:15.440Z,1004.77
2017-04-01T14:26:27.735Z,1004.77
2017-04-01T14:27:39.687Z,1004.78
2017-04-01T14:28:52.227Z,1004.71
2017-04-01T14:30:04.796Z,1004.76
2017-04-01T14:31:17.012Z,1004.72
2017-04-01T14:32:29.242Z,1004.75
2017-04-01T14:33:41.787Z,1004.75
2017-04-01T14:34:54.332Z,1004.73
2017-04-01T14:36:06.277Z,1004.71
2017-04-01T14:37:18.523Z,1004.71
2017-04-01T14:38:31.116Z,1004.66